sensor_id;sensor_type;location;lat;lon;timestamp;P1;durP1;ratioP1;P2;durP2;ratioP2
17091;SDS011;8661;45.700;4.880;2023-02-28T00:01:30;10.70;;;5.37;;
17091;SDS011;8661;45.700;4.880;2023-02-28T00:04:04;8.27;;;5.30;;
17091;SDS011;8661;45.700;4.880;2023-02-28T00:06:34;8.33;;;5.33;;
17091;SDS011;8661;45.700;4.880;2023-02-28T00:09:01;6.97;;;5.10;;
17091;SDS011;8661;45.700;4.880;2023-02-28T00:11:28;7.43;;;4.83;;
17091;SDS011;8661;45.700;4.880;2023-02-28T00:13:55;7.17;;;5.23;;
17091;SDS011;8661;45.700;4.880;2023-02-28T00:16:22;7.87;;;5.33;;
17091;SDS011;8661;45.700;4.880;2023-02-28T00:18:52;9.67;;;5.53;;
17091;SDS011;8661;45.700;4.880;2023-02-28T00:21:28;7.40;;;4.93;;
17091;SDS011;8661;45.700;4.880;2023-02-28T00:23:55;8.07;;;5.20;;
17091;SDS011;8661;45.700;4.880;2023-02-28T00:26:22;8.57;;;5.10;;
17091;SDS011;8661;45.700;4.880;2023-02-28T00:28:49;9.83;;;5.50;;
17091;SDS011;8661;45.700;4.880;2023-02-28T00:31:26;8.03;;;4.97;;
17091;SDS011;8661;45.700;4.880;2023-02-28T00:33:59;7.10;;;5.03;;
17091;SDS011;8661;45.700;4.880;2023-02-28T00:36:27;8.10;;;5.97;;
17091;SDS011;8661;45.700;4.880;2023-02-28T00:38:54;7.47;;;5.77;;
17091;SDS011;8661;45.700;4.880;2023-02-28T00:41:23;9.03;;;5.40;;
17091;SDS011;8661;45.700;4.880;2023-02-28T00:43:53;9.30;;;5.43;;
17091;SDS011;8661;45.700;4.880;2023-02-28T00:46:25;8.83;;;5.50;;
17091;SDS011;8661;45.700;4.880;2023-02-28T00:48:52;7.13;;;5.40;;
17091;SDS011;8661;45.700;4.880;2023-02-28T00:51:21;7.60;;;5.17;;
17091;SDS011;8661;45.700;4.880;2023-02-28T00:53:53;7.13;;;5.53;;
17091;SDS011;8661;45.700;4.880;2023-02-28T00:56:26;7.93;;;5.13;;
17091;SDS011;8661;45.700;4.880;2023-02-28T00:58:54;8.77;;;5.70;;
17091;SDS011;8661;45.700;4.880;2023-02-28T01:01:21;8.37;;;5.10;;
17091;SDS011;8661;45.700;4.880;2023-02-28T01:03:50;7.73;;;5.30;;
17091;SDS011;8661;45.700;4.880;2023-02-28T01:06:19;5.63;;;4.30;;
17091;SDS011;8661;45.700;4.880;2023-02-28T01:08:46;6.60;;;5.30;;
17091;SDS011;8661;45.700;4.880;2023-02-28T01:11:16;7.80;;;5.70;;
17091;SDS011;8661;45.700;4.880;2023-02-28T01:13:44;8.23;;;5.37;;
17091;SDS011;8661;45.700;4.880;2023-02-28T01:16:12;7.23;;;4.87;;
17091;SDS011;8661;45.700;4.880;2023-02-28T01:18:40;7.63;;;4.73;;
17091;SDS011;8661;45.700;4.880;2023-02-28T01:21:09;7.83;;;5.43;;
17091;SDS011;8661;45.700;4.880;2023-02-28T01:23:38;7.47;;;5.13;;
17091;SDS011;8661;45.700;4.880;2023-02-28T01:26:06;6.63;;;4.40;;
17091;SDS011;8661;45.700;4.880;2023-02-28T01:28:34;7.10;;;4.90;;
17091;SDS011;8661;45.700;4.880;2023-02-28T01:31:01;6.97;;;5.13;;
17091;SDS011;8661;45.700;4.880;2023-02-28T01:33:29;7.67;;;4.93;;
17091;SDS011;8661;45.700;4.880;2023-02-28T01:35:59;6.17;;;5.00;;
17091;SDS011;8661;45.700;4.880;2023-02-28T01:38:26;7.33;;;4.80;;
17091;SDS011;8661;45.700;4.880;2023-02-28T01:40:56;6.63;;;4.40;;
17091;SDS011;8661;45.700;4.880;2023-02-28T01:43:27;7.40;;;4.80;;
17091;SDS011;8661;45.700;4.880;2023-02-28T01:45:57;7.67;;;5.10;;
17091;SDS011;8661;45.700;4.880;2023-02-28T01:48:25;6.30;;;4.70;;
17091;SDS011;8661;45.700;4.880;2023-02-28T01:50:55;5.07;;;4.33;;
17091;SDS011;8661;45.700;4.880;2023-02-28T01:53:26;6.53;;;4.57;;
17091;SDS011;8661;45.700;4.880;2023-02-28T01:55:58;5.13;;;4.60;;
17091;SDS011;8661;45.700;4.880;2023-02-28T01:58:29;6.87;;;4.77;;
17091;SDS011;8661;45.700;4.880;2023-02-28T02:00:58;6.87;;;4.50;;
17091;SDS011;8661;45.700;4.880;2023-02-28T02:03:25;6.80;;;4.90;;
17091;SDS011;8661;45.700;4.880;2023-02-28T02:05:52;5.27;;;4.10;;
17091;SDS011;8661;45.700;4.880;2023-02-28T02:08:20;6.33;;;4.70;;
17091;SDS011;8661;45.700;4.880;2023-02-28T02:10:51;7.07;;;4.90;;
17091;SDS011;8661;45.700;4.880;2023-02-28T02:13:28;8.17;;;4.97;;
17091;SDS011;8661;45.700;4.880;2023-02-28T02:16:23;7.40;;;6.10;;
17091;SDS011;8661;45.700;4.880;2023-02-28T02:19:02;10.67;;;5.63;;
17091;SDS011;8661;45.700;4.880;2023-02-28T02:21:47;7.33;;;5.70;;
17091;SDS011;8661;45.700;4.880;2023-02-28T02:24:36;7.57;;;5.60;;
17091;SDS011;8661;45.700;4.880;2023-02-28T02:27:26;6.77;;;5.17;;
17091;SDS011;8661;45.700;4.880;2023-02-28T02:30:14;8.73;;;4.47;;
17091;SDS011;8661;45.700;4.880;2023-02-28T02:32:52;6.33;;;4.33;;
17091;SDS011;8661;45.700;4.880;2023-02-28T02:35:38;6.00;;;4.33;;
17091;SDS011;8661;45.700;4.880;2023-02-28T02:38:09;6.10;;;4.53;;
17091;SDS011;8661;45.700;4.880;2023-02-28T02:40:45;7.73;;;4.30;;
17091;SDS011;8661;45.700;4.880;2023-02-28T02:43:22;8.50;;;5.10;;
17091;SDS011;8661;45.700;4.880;2023-02-28T02:45:55;6.83;;;4.73;;
17091;SDS011;8661;45.700;4.880;2023-02-28T02:48:26;5.97;;;4.30;;
17091;SDS011;8661;45.700;4.880;2023-02-28T02:50:59;6.30;;;4.67;;
17091;SDS011;8661;45.700;4.880;2023-02-28T02:53:28;5.87;;;4.20;;
17091;SDS011;8661;45.700;4.880;2023-02-28T02:55:59;7.23;;;4.57;;
17091;SDS011;8661;45.700;4.880;2023-02-28T02:58:33;6.60;;;4.10;;
17091;SDS011;8661;45.700;4.880;2023-02-28T03:01:07;6.47;;;4.40;;
17091;SDS011;8661;45.700;4.880;2023-02-28T03:03:36;6.90;;;4.50;;
17091;SDS011;8661;45.700;4.880;2023-02-28T03:06:06;6.43;;;4.60;;
17091;SDS011;8661;45.700;4.880;2023-02-28T03:08:34;7.53;;;4.63;;
17091;SDS011;8661;45.700;4.880;2023-02-28T03:11:03;5.93;;;4.63;;
17091;SDS011;8661;45.700;4.880;2023-02-28T03:16:34;7.67;;;4.40;;
17091;SDS011;8661;45.700;4.880;2023-02-28T03:19:23;7.17;;;4.53;;
17091;SDS011;8661;45.700;4.880;2023-02-28T03:22:03;6.40;;;4.63;;
17091;SDS011;8661;45.700;4.880;2023-02-28T03:24:41;6.17;;;4.63;;
17091;SDS011;8661;45.700;4.880;2023-02-28T03:27:17;6.50;;;4.47;;
17091;SDS011;8661;45.700;4.880;2023-02-28T03:29:51;6.07;;;4.20;;
17091;SDS011;8661;45.700;4.880;2023-02-28T03:32:26;6.90;;;4.70;;
17091;SDS011;8661;45.700;4.880;2023-02-28T03:34:56;5.50;;;4.43;;
17091;SDS011;8661;45.700;4.880;2023-02-28T03:37:32;8.30;;;4.70;;
17091;SDS011;8661;45.700;4.880;2023-02-28T03:40:04;6.80;;;4.70;;
17091;SDS011;8661;45.700;4.880;2023-02-28T03:42:38;7.60;;;4.27;;
17091;SDS011;8661;45.700;4.880;2023-02-28T03:45:10;6.60;;;4.47;;
17091;SDS011;8661;45.700;4.880;2023-02-28T03:47:40;7.30;;;5.30;;
17091;SDS011;8661;45.700;4.880;2023-02-28T03:50:13;7.63;;;4.93;;
17091;SDS011;8661;45.700;4.880;2023-02-28T03:52:46;5.67;;;4.27;;
17091;SDS011;8661;45.700;4.880;2023-02-28T03:55:16;6.47;;;4.93;;
17091;SDS011;8661;45.700;4.880;2023-02-28T03:57:47;6.17;;;4.63;;
17091;SDS011;8661;45.700;4.880;2023-02-28T04:00:25;6.80;;;4.33;;
17091;SDS011;8661;45.700;4.880;2023-02-28T04:02:57;6.43;;;4.13;;
17091;SDS011;8661;45.700;4.880;2023-02-28T04:05:25;6.70;;;4.77;;
17091;SDS011;8661;45.700;4.880;2023-02-28T04:07:54;6.33;;;4.67;;
17091;SDS011;8661;45.700;4.880;2023-02-28T04:10:30;5.37;;;4.27;;
17091;SDS011;8661;45.700;4.880;2023-02-28T04:12:57;6.50;;;4.23;;
17091;SDS011;8661;45.700;4.880;2023-02-28T04:15:25;9.03;;;4.90;;
17091;SDS011;8661;45.700;4.880;2023-02-28T04:17:52;6.70;;;4.80;;
17091;SDS011;8661;45.700;4.880;2023-02-28T04:20:19;6.63;;;4.73;;
17091;SDS011;8661;45.700;4.880;2023-02-28T04:22:46;6.23;;;4.50;;
17091;SDS011;8661;45.700;4.880;2023-02-28T04:25:15;5.97;;;4.70;;
17091;SDS011;8661;45.700;4.880;2023-02-28T04:27:42;5.73;;;4.53;;
17091;SDS011;8661;45.700;4.880;2023-02-28T04:30:10;6.27;;;4.60;;
17091;SDS011;8661;45.700;4.880;2023-02-28T04:32:37;8.30;;;5.03;;
17091;SDS011;8661;45.700;4.880;2023-02-28T04:35:05;5.63;;;4.77;;
17091;SDS011;8661;45.700;4.880;2023-02-28T04:37:33;7.07;;;4.83;;
17091;SDS011;8661;45.700;4.880;2023-02-28T04:40:03;5.47;;;4.43;;
17091;SDS011;8661;45.700;4.880;2023-02-28T04:42:32;6.80;;;4.57;;
17091;SDS011;8661;45.700;4.880;2023-02-28T04:45:02;5.67;;;4.57;;
17091;SDS011;8661;45.700;4.880;2023-02-28T04:47:30;6.53;;;4.17;;
17091;SDS011;8661;45.700;4.880;2023-02-28T04:49:57;8.23;;;4.53;;
17091;SDS011;8661;45.700;4.880;2023-02-28T04:52:24;5.87;;;4.40;;
17091;SDS011;8661;45.700;4.880;2023-02-28T04:54:55;7.07;;;4.60;;
17091;SDS011;8661;45.700;4.880;2023-02-28T04:57:22;7.67;;;4.60;;
17091;SDS011;8661;45.700;4.880;2023-02-28T04:59:52;5.80;;;4.40;;
17091;SDS011;8661;45.700;4.880;2023-02-28T05:02:22;6.40;;;4.43;;
17091;SDS011;8661;45.700;4.880;2023-02-28T05:04:53;8.50;;;4.67;;
17091;SDS011;8661;45.700;4.880;2023-02-28T05:07:22;6.77;;;4.83;;
17091;SDS011;8661;45.700;4.880;2023-02-28T05:09:51;6.00;;;4.43;;
17091;SDS011;8661;45.700;4.880;2023-02-28T05:12:21;6.17;;;4.30;;
17091;SDS011;8661;45.700;4.880;2023-02-28T05:14:50;8.03;;;4.57;;
17091;SDS011;8661;45.700;4.880;2023-02-28T05:17:18;6.50;;;4.50;;
17091;SDS011;8661;45.700;4.880;2023-02-28T05:19:45;7.80;;;4.83;;
17091;SDS011;8661;45.700;4.880;2023-02-28T05:22:13;6.87;;;4.83;;
17091;SDS011;8661;45.700;4.880;2023-02-28T05:24:41;8.30;;;4.80;;
17091;SDS011;8661;45.700;4.880;2023-02-28T05:27:09;5.90;;;4.40;;
17091;SDS011;8661;45.700;4.880;2023-02-28T05:29:36;6.87;;;4.77;;
17091;SDS011;8661;45.700;4.880;2023-02-28T05:32:08;5.30;;;4.17;;
17091;SDS011;8661;45.700;4.880;2023-02-28T05:34:39;9.50;;;4.93;;
17091;SDS011;8661;45.700;4.880;2023-02-28T05:37:10;7.87;;;5.10;;
17091;SDS011;8661;45.700;4.880;2023-02-28T05:39:40;6.80;;;4.87;;
17091;SDS011;8661;45.700;4.880;2023-02-28T05:42:08;6.40;;;4.40;;
17091;SDS011;8661;45.700;4.880;2023-02-28T05:44:36;5.37;;;4.10;;
17091;SDS011;8661;45.700;4.880;2023-02-28T05:47:04;6.37;;;4.87;;
17091;SDS011;8661;45.700;4.880;2023-02-28T05:49:31;5.93;;;4.27;;
17091;SDS011;8661;45.700;4.880;2023-02-28T05:52:00;9.57;;;5.00;;
17091;SDS011;8661;45.700;4.880;2023-02-28T05:54:28;6.50;;;4.97;;
17091;SDS011;8661;45.700;4.880;2023-02-28T05:56:55;6.37;;;4.50;;
17091;SDS011;8661;45.700;4.880;2023-02-28T05:59:22;7.33;;;4.17;;
17091;SDS011;8661;45.700;4.880;2023-02-28T06:01:49;7.33;;;4.53;;
17091;SDS011;8661;45.700;4.880;2023-02-28T06:04:18;6.97;;;4.63;;
17091;SDS011;8661;45.700;4.880;2023-02-28T06:06:46;6.23;;;4.80;;
17091;SDS011;8661;45.700;4.880;2023-02-28T06:09:17;5.47;;;4.83;;
17091;SDS011;8661;45.700;4.880;2023-02-28T06:11:51;6.10;;;4.70;;
17091;SDS011;8661;45.700;4.880;2023-02-28T06:14:25;6.70;;;4.73;;
17091;SDS011;8661;45.700;4.880;2023-02-28T06:16:53;6.77;;;4.70;;
17091;SDS011;8661;45.700;4.880;2023-02-28T06:19:21;6.40;;;4.70;;
17091;SDS011;8661;45.700;4.880;2023-02-28T06:21:50;8.97;;;5.10;;
17091;SDS011;8661;45.700;4.880;2023-02-28T06:24:20;5.20;;;4.13;;
17091;SDS011;8661;45.700;4.880;2023-02-28T06:26:47;6.47;;;4.33;;
17091;SDS011;8661;45.700;4.880;2023-02-28T06:29:14;7.47;;;5.40;;
17091;SDS011;8661;45.700;4.880;2023-02-28T06:31:42;7.20;;;4.93;;
17091;SDS011;8661;45.700;4.880;2023-02-28T06:34:09;10.07;;;5.40;;
17091;SDS011;8661;45.700;4.880;2023-02-28T06:36:36;14.67;;;9.23;;
17091;SDS011;8661;45.700;4.880;2023-02-28T06:39:03;7.57;;;5.43;;
17091;SDS011;8661;45.700;4.880;2023-02-28T06:41:32;7.23;;;5.40;;
17091;SDS011;8661;45.700;4.880;2023-02-28T06:44:03;8.33;;;4.50;;
17091;SDS011;8661;45.700;4.880;2023-02-28T06:46:31;6.77;;;5.03;;
17091;SDS011;8661;45.700;4.880;2023-02-28T06:48:58;8.90;;;4.60;;
17091;SDS011;8661;45.700;4.880;2023-02-28T06:51:25;8.40;;;4.90;;
17091;SDS011;8661;45.700;4.880;2023-02-28T06:53:52;8.87;;;5.17;;
17091;SDS011;8661;45.700;4.880;2023-02-28T06:56:19;8.90;;;5.20;;
17091;SDS011;8661;45.700;4.880;2023-02-28T06:58:48;7.40;;;4.70;;
17091;SDS011;8661;45.700;4.880;2023-02-28T07:01:17;6.80;;;5.23;;
17091;SDS011;8661;45.700;4.880;2023-02-28T07:03:45;6.20;;;4.67;;
17091;SDS011;8661;45.700;4.880;2023-02-28T07:06:17;11.93;;;5.30;;
17091;SDS011;8661;45.700;4.880;2023-02-28T07:08:44;6.17;;;4.33;;
17091;SDS011;8661;45.700;4.880;2023-02-28T07:11:12;8.40;;;5.20;;
17091;SDS011;8661;45.700;4.880;2023-02-28T07:13:39;8.77;;;4.93;;
17091;SDS011;8661;45.700;4.880;2023-02-28T07:16:08;7.27;;;4.93;;
17091;SDS011;8661;45.700;4.880;2023-02-28T07:18:36;5.57;;;4.63;;
17091;SDS011;8661;45.700;4.880;2023-02-28T07:21:04;8.50;;;4.43;;
17091;SDS011;8661;45.700;4.880;2023-02-28T07:23:34;8.83;;;4.70;;
17091;SDS011;8661;45.700;4.880;2023-02-28T07:26:03;6.40;;;4.60;;
17091;SDS011;8661;45.700;4.880;2023-02-28T07:28:30;4.63;;;4.10;;
17091;SDS011;8661;45.700;4.880;2023-02-28T07:31:02;6.37;;;4.03;;
17091;SDS011;8661;45.700;4.880;2023-02-28T07:33:31;7.00;;;4.10;;
17091;SDS011;8661;45.700;4.880;2023-02-28T07:36:02;7.00;;;4.50;;
17091;SDS011;8661;45.700;4.880;2023-02-28T07:38:30;6.90;;;4.40;;
17091;SDS011;8661;45.700;4.880;2023-02-28T07:40:59;6.33;;;4.23;;
17091;SDS011;8661;45.700;4.880;2023-02-28T07:43:29;5.70;;;4.20;;
17091;SDS011;8661;45.700;4.880;2023-02-28T07:46:00;5.83;;;3.93;;
17091;SDS011;8661;45.700;4.880;2023-02-28T07:48:28;8.07;;;4.20;;
17091;SDS011;8661;45.700;4.880;2023-02-28T07:50:56;5.30;;;4.13;;
17091;SDS011;8661;45.700;4.880;2023-02-28T07:53:24;6.03;;;3.53;;
17091;SDS011;8661;45.700;4.880;2023-02-28T07:55:54;6.63;;;4.00;;
17091;SDS011;8661;45.700;4.880;2023-02-28T07:58:21;8.63;;;4.60;;
17091;SDS011;8661;45.700;4.880;2023-02-28T08:00:48;7.77;;;3.90;;
17091;SDS011;8661;45.700;4.880;2023-02-28T08:03:15;5.10;;;3.80;;
17091;SDS011;8661;45.700;4.880;2023-02-28T08:05:44;7.80;;;4.30;;
17091;SDS011;8661;45.700;4.880;2023-02-28T08:08:13;6.40;;;4.30;;
17091;SDS011;8661;45.700;4.880;2023-02-28T08:10:40;5.60;;;4.17;;
17091;SDS011;8661;45.700;4.880;2023-02-28T08:13:07;6.20;;;3.77;;
17091;SDS011;8661;45.700;4.880;2023-02-28T08:15:34;4.33;;;3.27;;
17091;SDS011;8661;45.700;4.880;2023-02-28T08:18:01;4.73;;;3.60;;
17091;SDS011;8661;45.700;4.880;2023-02-28T08:20:28;5.80;;;3.60;;
17091;SDS011;8661;45.700;4.880;2023-02-28T08:22:55;5.90;;;3.80;;
17091;SDS011;8661;45.700;4.880;2023-02-28T08:25:24;7.67;;;4.30;;
17091;SDS011;8661;45.700;4.880;2023-02-28T08:27:51;6.10;;;3.87;;
17091;SDS011;8661;45.700;4.880;2023-02-28T08:30:18;6.13;;;4.03;;
17091;SDS011;8661;45.700;4.880;2023-02-28T08:32:45;5.07;;;3.97;;
17091;SDS011;8661;45.700;4.880;2023-02-28T08:35:12;4.97;;;4.03;;
17091;SDS011;8661;45.700;4.880;2023-02-28T08:37:39;7.93;;;4.23;;
17091;SDS011;8661;45.700;4.880;2023-02-28T08:40:06;8.67;;;4.40;;
17091;SDS011;8661;45.700;4.880;2023-02-28T08:42:36;6.73;;;3.50;;
17091;SDS011;8661;45.700;4.880;2023-02-28T08:45:03;7.80;;;4.23;;
17091;SDS011;8661;45.700;4.880;2023-02-28T08:47:31;3.87;;;3.30;;
17091;SDS011;8661;45.700;4.880;2023-02-28T08:49:58;10.50;;;3.70;;
17091;SDS011;8661;45.700;4.880;2023-02-28T08:52:24;4.60;;;3.23;;
17091;SDS011;8661;45.700;4.880;2023-02-28T08:54:51;11.07;;;3.87;;
17091;SDS011;8661;45.700;4.880;2023-02-28T08:57:18;7.33;;;3.80;;
17091;SDS011;8661;45.700;4.880;2023-02-28T08:59:47;8.30;;;4.03;;
17091;SDS011;8661;45.700;4.880;2023-02-28T09:02:14;7.47;;;3.50;;
17091;SDS011;8661;45.700;4.880;2023-02-28T09:04:41;4.17;;;3.50;;
17091;SDS011;8661;45.700;4.880;2023-02-28T09:07:10;5.53;;;3.70;;
17091;SDS011;8661;45.700;4.880;2023-02-28T09:09:37;5.30;;;3.63;;
17091;SDS011;8661;45.700;4.880;2023-02-28T09:12:19;6.37;;;3.90;;
17091;SDS011;8661;45.700;4.880;2023-02-28T09:14:47;4.93;;;3.77;;
17091;SDS011;8661;45.700;4.880;2023-02-28T09:17:14;4.37;;;3.87;;
17091;SDS011;8661;45.700;4.880;2023-02-28T09:19:41;5.80;;;3.70;;
17091;SDS011;8661;45.700;4.880;2023-02-28T09:22:09;4.47;;;3.60;;
17091;SDS011;8661;45.700;4.880;2023-02-28T09:24:36;8.20;;;4.47;;
17091;SDS011;8661;45.700;4.880;2023-02-28T09:27:04;4.90;;;3.90;;
17091;SDS011;8661;45.700;4.880;2023-02-28T09:29:32;4.43;;;4.03;;
17091;SDS011;8661;45.700;4.880;2023-02-28T09:32:01;7.23;;;4.17;;
17091;SDS011;8661;45.700;4.880;2023-02-28T09:34:30;6.33;;;4.23;;
17091;SDS011;8661;45.700;4.880;2023-02-28T09:36:57;6.87;;;3.97;;
17091;SDS011;8661;45.700;4.880;2023-02-28T09:39:24;7.00;;;4.50;;
17091;SDS011;8661;45.700;4.880;2023-02-28T09:41:53;7.93;;;4.20;;
17091;SDS011;8661;45.700;4.880;2023-02-28T09:44:22;5.97;;;4.13;;
17091;SDS011;8661;45.700;4.880;2023-02-28T09:46:56;4.57;;;3.73;;
17091;SDS011;8661;45.700;4.880;2023-02-28T09:49:28;6.40;;;4.13;;
17091;SDS011;8661;45.700;4.880;2023-02-28T09:52:01;4.83;;;4.33;;
17091;SDS011;8661;45.700;4.880;2023-02-28T09:54:31;6.80;;;4.30;;
17091;SDS011;8661;45.700;4.880;2023-02-28T09:56:59;8.93;;;4.67;;
17091;SDS011;8661;45.700;4.880;2023-02-28T09:59:42;5.07;;;4.03;;
17091;SDS011;8661;45.700;4.880;2023-02-28T10:02:34;8.23;;;5.47;;
17091;SDS011;8661;45.700;4.880;2023-02-28T10:05:12;13.10;;;9.63;;
17091;SDS011;8661;45.700;4.880;2023-02-28T10:07:46;8.10;;;5.63;;
17091;SDS011;8661;45.700;4.880;2023-02-28T10:10:24;7.80;;;4.53;;
17091;SDS011;8661;45.700;4.880;2023-02-28T10:12:54;9.33;;;4.37;;
17091;SDS011;8661;45.700;4.880;2023-02-28T10:15:25;6.23;;;4.67;;
17091;SDS011;8661;45.700;4.880;2023-02-28T10:17:56;7.33;;;5.07;;
17091;SDS011;8661;45.700;4.880;2023-02-28T10:20:28;12.33;;;5.43;;
17091;SDS011;8661;45.700;4.880;2023-02-28T10:23:00;7.60;;;5.00;;
17091;SDS011;8661;45.700;4.880;2023-02-28T10:25:32;6.20;;;4.40;;
17091;SDS011;8661;45.700;4.880;2023-02-28T10:28:01;7.03;;;5.07;;
17091;SDS011;8661;45.700;4.880;2023-02-28T10:30:36;13.97;;;5.40;;
17091;SDS011;8661;45.700;4.880;2023-02-28T10:33:08;12.00;;;5.17;;
17091;SDS011;8661;45.700;4.880;2023-02-28T10:35:46;5.77;;;4.67;;
17091;SDS011;8661;45.700;4.880;2023-02-28T10:38:17;7.23;;;5.00;;
17091;SDS011;8661;45.700;4.880;2023-02-28T10:40:46;5.57;;;4.57;;
17091;SDS011;8661;45.700;4.880;2023-02-28T10:43:21;8.07;;;5.03;;
17091;SDS011;8661;45.700;4.880;2023-02-28T10:45:53;9.40;;;5.00;;
17091;SDS011;8661;45.700;4.880;2023-02-28T10:48:30;8.17;;;4.73;;
17091;SDS011;8661;45.700;4.880;2023-02-28T10:51:01;6.33;;;4.40;;
17091;SDS011;8661;45.700;4.880;2023-02-28T10:53:30;7.20;;;4.97;;
17091;SDS011;8661;45.700;4.880;2023-02-28T10:56:00;8.23;;;4.77;;
17091;SDS011;8661;45.700;4.880;2023-02-28T10:58:29;8.50;;;4.70;;
17091;SDS011;8661;45.700;4.880;2023-02-28T11:00:58;7.20;;;4.90;;
17091;SDS011;8661;45.700;4.880;2023-02-28T11:03:29;6.17;;;4.60;;
17091;SDS011;8661;45.700;4.880;2023-02-28T11:05:58;6.47;;;4.60;;
17091;SDS011;8661;45.700;4.880;2023-02-28T11:08:31;7.03;;;4.77;;
17091;SDS011;8661;45.700;4.880;2023-02-28T11:11:01;6.50;;;5.17;;
17091;SDS011;8661;45.700;4.880;2023-02-28T11:13:32;9.13;;;5.37;;
17091;SDS011;8661;45.700;4.880;2023-02-28T11:16:02;6.10;;;5.07;;
17091;SDS011;8661;45.700;4.880;2023-02-28T11:18:30;7.17;;;5.03;;
17091;SDS011;8661;45.700;4.880;2023-02-28T11:21:04;8.17;;;5.60;;
17091;SDS011;8661;45.700;4.880;2023-02-28T11:23:34;6.00;;;5.00;;
17091;SDS011;8661;45.700;4.880;2023-02-28T11:26:06;6.93;;;5.27;;
17091;SDS011;8661;45.700;4.880;2023-02-28T11:28:36;6.33;;;4.83;;
17091;SDS011;8661;45.700;4.880;2023-02-28T11:31:13;7.83;;;5.10;;
17091;SDS011;8661;45.700;4.880;2023-02-28T11:33:44;10.67;;;5.40;;
17091;SDS011;8661;45.700;4.880;2023-02-28T11:36:16;10.57;;;5.60;;
17091;SDS011;8661;45.700;4.880;2023-02-28T11:38:47;7.13;;;5.40;;
17091;SDS011;8661;45.700;4.880;2023-02-28T11:41:25;8.30;;;5.43;;
17091;SDS011;8661;45.700;4.880;2023-02-28T11:44:17;7.13;;;5.13;;
17091;SDS011;8661;45.700;4.880;2023-02-28T11:46:54;6.70;;;5.20;;
17091;SDS011;8661;45.700;4.880;2023-02-28T11:49:32;7.73;;;5.67;;
17091;SDS011;8661;45.700;4.880;2023-02-28T11:52:06;7.93;;;5.60;;
17091;SDS011;8661;45.700;4.880;2023-02-28T11:55:00;6.50;;;5.50;;
17091;SDS011;8661;45.700;4.880;2023-02-28T11:57:52;6.60;;;5.40;;
17091;SDS011;8661;45.700;4.880;2023-02-28T12:00:41;8.27;;;6.00;;
17091;SDS011;8661;45.700;4.880;2023-02-28T12:03:28;9.33;;;6.27;;
17091;SDS011;8661;45.700;4.880;2023-02-28T12:06:05;6.70;;;5.37;;
17091;SDS011;8661;45.700;4.880;2023-02-28T12:08:47;6.87;;;5.67;;
17091;SDS011;8661;45.700;4.880;2023-02-28T12:11:27;6.60;;;5.50;;
17091;SDS011;8661;45.700;4.880;2023-02-28T12:14:07;6.73;;;5.70;;
17091;SDS011;8661;45.700;4.880;2023-02-28T12:16:50;7.97;;;5.97;;
17091;SDS011;8661;45.700;4.880;2023-02-28T12:19:26;6.57;;;5.67;;
17091;SDS011;8661;45.700;4.880;2023-02-28T12:25:02;9.07;;;6.00;;
17091;SDS011;8661;45.700;4.880;2023-02-28T12:27:54;7.87;;;6.37;;
17091;SDS011;8661;45.700;4.880;2023-02-28T12:30:22;6.93;;;6.03;;
17091;SDS011;8661;45.700;4.880;2023-02-28T12:32:52;7.53;;;5.80;;
17091;SDS011;8661;45.700;4.880;2023-02-28T12:35:23;9.90;;;6.10;;
17091;SDS011;8661;45.700;4.880;2023-02-28T12:37:59;6.50;;;5.67;;
17091;SDS011;8661;45.700;4.880;2023-02-28T12:40:32;8.03;;;6.27;;
17091;SDS011;8661;45.700;4.880;2023-02-28T12:43:09;8.80;;;5.80;;
17091;SDS011;8661;45.700;4.880;2023-02-28T12:45:40;6.80;;;6.03;;
17091;SDS011;8661;45.700;4.880;2023-02-28T12:48:12;7.50;;;5.83;;
17091;SDS011;8661;45.700;4.880;2023-02-28T12:50:41;7.53;;;6.37;;
17091;SDS011;8661;45.700;4.880;2023-02-28T12:53:09;6.87;;;5.73;;
17091;SDS011;8661;45.700;4.880;2023-02-28T12:55:40;7.73;;;6.10;;
17091;SDS011;8661;45.700;4.880;2023-02-28T12:58:14;7.80;;;6.00;;
17091;SDS011;8661;45.700;4.880;2023-02-28T13:00:56;8.17;;;6.30;;
17091;SDS011;8661;45.700;4.880;2023-02-28T13:03:50;8.47;;;6.80;;
17091;SDS011;8661;45.700;4.880;2023-02-28T13:06:34;7.73;;;6.07;;
17091;SDS011;8661;45.700;4.880;2023-02-28T13:09:18;7.30;;;5.70;;
17091;SDS011;8661;45.700;4.880;2023-02-28T13:11:46;7.47;;;5.93;;
17091;SDS011;8661;45.700;4.880;2023-02-28T13:14:19;6.80;;;6.03;;
17091;SDS011;8661;45.700;4.880;2023-02-28T13:16:55;6.70;;;6.00;;
17091;SDS011;8661;45.700;4.880;2023-02-28T13:19:26;6.93;;;6.00;;
17091;SDS011;8661;45.700;4.880;2023-02-28T13:21:54;8.30;;;6.33;;
17091;SDS011;8661;45.700;4.880;2023-02-28T13:27:12;7.40;;;6.30;;
17091;SDS011;8661;45.700;4.880;2023-02-28T13:29:59;8.47;;;5.87;;
17091;SDS011;8661;45.700;4.880;2023-02-28T13:35:14;6.83;;;6.07;;
17091;SDS011;8661;45.700;4.880;2023-02-28T13:38:08;7.13;;;6.13;;
17091;SDS011;8661;45.700;4.880;2023-02-28T13:40:41;7.60;;;6.30;;
17091;SDS011;8661;45.700;4.880;2023-02-28T13:43:08;7.07;;;6.20;;
17091;SDS011;8661;45.700;4.880;2023-02-28T13:45:37;7.00;;;6.23;;
17091;SDS011;8661;45.700;4.880;2023-02-28T13:48:05;10.80;;;6.07;;
17091;SDS011;8661;45.700;4.880;2023-02-28T13:50:43;7.57;;;6.87;;
17091;SDS011;8661;45.700;4.880;2023-02-28T13:53:26;8.07;;;6.93;;
17091;SDS011;8661;45.700;4.880;2023-02-28T13:56:19;7.30;;;6.53;;
17091;SDS011;8661;45.700;4.880;2023-02-28T13:58:54;7.30;;;6.43;;
17091;SDS011;8661;45.700;4.880;2023-02-28T14:04:35;7.80;;;7.00;;
17091;SDS011;8661;45.700;4.880;2023-02-28T14:07:30;7.97;;;6.70;;
17091;SDS011;8661;45.700;4.880;2023-02-28T14:10:00;7.63;;;6.80;;
17091;SDS011;8661;45.700;4.880;2023-02-28T14:18:23;9.60;;;6.87;;
17091;SDS011;8661;45.700;4.880;2023-02-28T14:20:54;9.50;;;7.37;;
17091;SDS011;8661;45.700;4.880;2023-02-28T14:23:31;9.60;;;7.40;;
17091;SDS011;8661;45.700;4.880;2023-02-28T14:26:06;9.33;;;7.07;;
17091;SDS011;8661;45.700;4.880;2023-02-28T14:28:47;7.80;;;6.90;;
17091;SDS011;8661;45.700;4.880;2023-02-28T14:31:28;8.30;;;6.87;;
17091;SDS011;8661;45.700;4.880;2023-02-28T14:34:05;8.97;;;7.47;;
17091;SDS011;8661;45.700;4.880;2023-02-28T14:36:44;13.33;;;7.17;;
17091;SDS011;8661;45.700;4.880;2023-02-28T14:39:12;9.97;;;7.57;;
17091;SDS011;8661;45.700;4.880;2023-02-28T14:41:41;8.73;;;7.57;;
17091;SDS011;8661;45.700;4.880;2023-02-28T14:44:13;10.77;;;7.03;;
17091;SDS011;8661;45.700;4.880;2023-02-28T14:46:43;11.87;;;7.53;;
17091;SDS011;8661;45.700;4.880;2023-02-28T14:49:18;9.33;;;7.30;;
17091;SDS011;8661;45.700;4.880;2023-02-28T14:51:47;9.87;;;7.40;;
17091;SDS011;8661;45.700;4.880;2023-02-28T14:54:16;8.73;;;7.10;;
17091;SDS011;8661;45.700;4.880;2023-02-28T14:56:49;7.87;;;6.80;;
17091;SDS011;8661;45.700;4.880;2023-02-28T14:59:22;9.70;;;6.97;;
17091;SDS011;8661;45.700;4.880;2023-02-28T15:01:51;9.40;;;6.43;;
17091;SDS011;8661;45.700;4.880;2023-02-28T15:04:22;14.07;;;7.00;;
17091;SDS011;8661;45.700;4.880;2023-02-28T15:09:37;9.37;;;7.00;;
17091;SDS011;8661;45.700;4.880;2023-02-28T15:12:04;8.83;;;7.10;;
17091;SDS011;8661;45.700;4.880;2023-02-28T15:14:31;10.87;;;6.83;;
17091;SDS011;8661;45.700;4.880;2023-02-28T15:17:01;11.30;;;8.03;;
17091;SDS011;8661;45.700;4.880;2023-02-28T15:19:34;7.90;;;7.10;;
17091;SDS011;8661;45.700;4.880;2023-02-28T15:22:06;8.20;;;7.00;;
17091;SDS011;8661;45.700;4.880;2023-02-28T15:24:38;8.97;;;7.20;;
17091;SDS011;8661;45.700;4.880;2023-02-28T15:27:11;11.13;;;7.00;;
17091;SDS011;8661;45.700;4.880;2023-02-28T15:29:43;13.23;;;6.73;;
17091;SDS011;8661;45.700;4.880;2023-02-28T15:32:20;10.00;;;7.40;;
17091;SDS011;8661;45.700;4.880;2023-02-28T15:34:54;11.43;;;6.97;;
17091;SDS011;8661;45.700;4.880;2023-02-28T15:37:30;8.43;;;6.93;;
17091;SDS011;8661;45.700;4.880;2023-02-28T15:40:06;10.00;;;6.90;;
17091;SDS011;8661;45.700;4.880;2023-02-28T15:42:39;9.07;;;7.07;;
17091;SDS011;8661;45.700;4.880;2023-02-28T15:45:25;8.77;;;7.23;;
17091;SDS011;8661;45.700;4.880;2023-02-28T15:47:54;9.20;;;7.10;;
17091;SDS011;8661;45.700;4.880;2023-02-28T15:50:22;9.47;;;6.53;;